createdAt,value
2018-09-18T00:00:24.620Z,18.70
2018-09-18T00:02:55.424Z,18.70
2018-09-18T00:05:26.264Z,18.60
2018-09-18T00:07:57.049Z,18.60
2018-09-18T00:10:28.561Z,18.60
2018-09-18T00:12:59.496Z,18.60
2018-09-18T00:15:30.337Z,18.60
2018-09-18T00:18:01.176Z,18.60
2018-09-18T00:20:32.555Z,18.60
2018-09-18T00:23:03.394Z,18.60
2018-09-18T00:25:34.349Z,18.50
2018-09-18T00:28:05.620Z,18.50
2018-09-18T00:30:36.516Z,18.50
2018-09-18T00:33:07.477Z,18.40
2018-09-18T00:35:38.352Z,18.40
2018-09-18T00:38:09.784Z,18.30
2018-09-18T00:40:40.654Z,18.30
2018-09-18T00:43:11.604Z,18.30
2018-09-18T00:45:43.341Z,18.30
2018-09-18T00:48:14.165Z,18.30
2018-09-18T00:50:45.020Z,18.20
2018-09-18T00:53:15.858Z,18.10
2018-09-18T00:55:47.112Z,18.20
2018-09-18T00:58:17.948Z,18.30
2018-09-18T01:00:48.910Z,18.30
2018-09-18T01:03:19.758Z,18.40
2018-09-18T01:05:50.673Z,18.20
2018-09-18T01:08:21.523Z,18.10
2018-09-18T01:10:52.419Z,18.10
2018-09-18T01:13:23.258Z,18.20
2018-09-18T01:15:54.116Z,18.20
2018-09-18T01:18:28.994Z,18.20
2018-09-18T01:21:00.073Z,18.20
2018-09-18T01:23:30.864Z,18.20
2018-09-18T01:26:01.773Z,18.20
2018-09-18T01:28:32.629Z,18.20
2018-09-18T01:31:04.656Z,18.10
2018-09-18T01:33:35.938Z,18.10
2018-09-18T01:36:06.840Z,18.10
2018-09-18T01:38:37.763Z,18.10
2018-09-18T01:41:08.635Z,18.00
2018-09-18T01:43:39.553Z,17.90
2018-09-18T01:46:10.449Z,17.90
2018-09-18T01:48:41.513Z,17.90
2018-09-18T01:51:12.476Z,17.80
2018-09-18T01:53:43.270Z,17.80
2018-09-18T01:56:14.724Z,17.80
2018-09-18T01:58:45.556Z,17.70
2018-09-18T02:01:16.351Z,17.70
2018-09-18T02:03:47.187Z,17.70
2018-09-18T02:06:17.964Z,17.80
2018-09-18T02:08:48.757Z,17.80
2018-09-18T02:11:19.572Z,17.80
2018-09-18T02:13:50.387Z,17.80
2018-09-18T02:16:21.387Z,17.80
2018-09-18T02:18:52.241Z,17.80
2018-09-18T02:21:23.121Z,17.80
2018-09-18T02:23:53.975Z,17.60
2018-09-18T02:26:24.831Z,17.60
2018-09-18T02:28:55.778Z,17.60
2018-09-18T02:31:27.164Z,17.60
2018-09-18T02:33:57.996Z,17.60
2018-09-18T02:36:29.243Z,17.60
2018-09-18T02:39:00.092Z,17.60
2018-09-18T02:41:31.028Z,17.50
2018-09-18T02:44:02.046Z,17.60
2018-09-18T02:46:32.987Z,17.50
2018-09-18T02:49:03.897Z,17.30
2018-09-18T02:51:34.862Z,17.30
2018-09-18T02:54:05.733Z,17.40
2018-09-18T02:56:36.588Z,17.50
2018-09-18T02:59:07.446Z,17.50
2018-09-18T03:01:38.544Z,17.40
2018-09-18T03:04:09.580Z,17.50
2018-09-18T03:06:40.559Z,17.40
2018-09-18T03:09:12.178Z,17.40
2018-09-18T03:11:43.011Z,17.40
2018-09-18T03:14:13.947Z,17.40
2018-09-18T03:16:44.745Z,17.50
2018-09-18T03:19:15.592Z,17.30
2018-09-18T03:21:46.499Z,17.20
2018-09-18T03:24:17.395Z,17.10
2018-09-18T03:26:48.281Z,17.10
2018-09-18T03:29:19.160Z,17.00
2018-09-18T03:31:50.920Z,16.90
2018-09-18T03:34:21.857Z,17.00
2018-09-18T03:36:52.806Z,17.00
2018-09-18T03:39:23.894Z,17.10
2018-09-18T03:41:54.731Z,17.10
2018-09-18T03:44:25.674Z,17.00
2018-09-18T03:46:56.536Z,17.00
2018-09-18T03:49:27.446Z,17.00
2018-09-18T03:51:58.227Z,17.00
2018-09-18T03:54:29.147Z,17.00
2018-09-18T03:57:00.006Z,17.00
2018-09-18T03:59:30.853Z,17.00
2018-09-18T04:02:01.672Z,16.90
2018-09-18T04:04:32.610Z,17.00
2018-09-18T04:07:04.143Z,17.10
2018-09-18T04:09:34.903Z,17.10
2018-09-18T04:12:05.755Z,17.10
2018-09-18T04:14:36.612Z,17.00
2018-09-18T04:17:07.650Z,17.10
2018-09-18T04:19:38.441Z,17.20
2018-09-18T04:22:09.502Z,17.10
2018-09-18T04:24:40.322Z,17.10
2018-09-18T04:27:11.256Z,17.10
2018-09-18T04:29:42.140Z,17.00
2018-09-18T04:32:13.647Z,17.00
2018-09-18T04:34:44.523Z,17.10
2018-09-18T04:37:15.370Z,17.10
2018-09-18T04:39:46.284Z,17.00
2018-09-18T04:42:17.105Z,17.00
2018-09-18T04:44:47.927Z,17.00
2018-09-18T04:47:18.819Z,17.00
2018-09-18T04:49:49.649Z,17.10
2018-09-18T04:52:20.517Z,17.20
2018-09-18T04:54:51.367Z,17.20
2018-09-18T04:57:22.293Z,17.30
2018-09-18T04:59:53.143Z,17.30
2018-09-18T05:02:24.042Z,17.40
2018-09-18T05:04:54.915Z,17.50
2018-09-18T05:07:25.821Z,17.70
2018-09-18T05:09:56.659Z,17.90
2018-09-18T05:12:27.554Z,18.10
2018-09-18T05:14:58.437Z,18.30
2018-09-18T05:17:29.380Z,18.50
2018-09-18T05:20:00.312Z,18.70
2018-09-18T05:22:31.511Z,18.90
2018-09-18T05:25:02.346Z,19.00
2018-09-18T05:27:33.315Z,19.10
2018-09-18T05:30:04.105Z,19.20
2018-09-18T05:32:35.331Z,19.40
2018-09-18T05:35:06.300Z,19.80
2018-09-18T05:37:37.192Z,19.70
2018-09-18T05:40:08.342Z,19.60
2018-09-18T05:42:39.509Z,19.60
2018-09-18T05:45:10.304Z,19.60
2018-09-18T05:47:41.096Z,19.80
2018-09-18T05:50:12.005Z,20.30
2018-09-18T05:52:42.933Z,20.90
2018-09-18T05:55:13.890Z,21.00
2018-09-18T05:57:44.750Z,21.30
2018-09-18T06:00:15.658Z,21.10
2018-09-18T06:02:46.609Z,20.90
2018-09-18T06:05:17.499Z,21.00
2018-09-18T06:07:48.328Z,21.50
2018-09-18T06:10:19.151Z,21.80
2018-09-18T06:12:50.038Z,22.20
2018-09-18T06:15:21.324Z,22.40
2018-09-18T06:17:52.212Z,23.20
2018-09-18T06:20:23.043Z,23.40
2018-09-18T06:22:54.202Z,23.70
2018-09-18T06:25:25.248Z,23.90
2018-09-18T06:27:56.099Z,23.80
2018-09-18T06:30:27.045Z,23.40
2018-09-18T06:32:57.877Z,23.30
2018-09-18T06:35:28.786Z,23.00
2018-09-18T06:37:59.634Z,23.40
2018-09-18T06:40:30.652Z,23.70
2018-09-18T06:43:01.473Z,24.30
2018-09-18T06:45:32.319Z,24.30
2018-09-18T06:48:03.291Z,24.80
2018-09-18T06:50:34.464Z,25.50
2018-09-18T06:53:05.474Z,25.30
2018-09-18T06:55:36.293Z,25.80
2018-09-18T06:58:07.246Z,25.90
2018-09-18T07:00:38.286Z,25.90
2018-09-18T07:03:09.153Z,26.20
2018-09-18T07:05:40.154Z,26.20
2018-09-18T07:08:11.025Z,26.30
2018-09-18T07:10:41.846Z,26.30
2018-09-18T07:13:12.817Z,26.00
2018-09-18T07:15:43.685Z,26.00
2018-09-18T07:18:14.527Z,26.10
2018-09-18T07:20:45.368Z,25.50
2018-09-18T07:23:16.203Z,25.50
2018-09-18T07:25:47.015Z,25.00
2018-09-18T07:28:17.865Z,25.70
2018-09-18T07:30:48.833Z,26.50
2018-09-18T07:33:19.693Z,26.40
2018-09-18T07:35:50.519Z,26.60
2018-09-18T07:38:21.378Z,26.90
2018-09-18T07:40:52.805Z,27.50
2018-09-18T07:43:23.727Z,27.70
2018-09-18T07:45:54.555Z,27.60
2018-09-18T07:48:29.953Z,27.60
2018-09-18T07:51:00.736Z,28.10
2018-09-18T07:53:31.717Z,28.30
2018-09-18T07:56:03.033Z,28.90
2018-09-18T07:58:34.001Z,29.40
2018-09-18T08:01:05.648Z,29.70
2018-09-18T08:03:36.544Z,29.60
2018-09-18T08:06:07.396Z,30.10
2018-09-18T08:08:38.262Z,30.00
2018-09-18T08:11:09.112Z,29.80
2018-09-18T08:13:40.029Z,29.80
2018-09-18T08:16:10.845Z,29.90
2018-09-18T08:18:41.748Z,29.40
2018-09-18T08:21:12.781Z,29.00
2018-09-18T08:23:43.561Z,29.20
2018-09-18T08:26:14.396Z,29.10
2018-09-18T08:28:45.378Z,29.30
2018-09-18T08:31:16.218Z,29.40
2018-09-18T08:33:47.084Z,29.70
2018-09-18T08:36:17.903Z,29.90
2018-09-18T08:38:49.030Z,29.60
2018-09-18T08:41:19.951Z,29.70
2018-09-18T08:43:50.840Z,30.60
2018-09-18T08:46:21.727Z,31.00
2018-09-18T08:48:57.637Z,30.70
2018-09-18T08:51:28.517Z,31.30
2018-09-18T08:53:59.388Z,32.00
2018-09-18T08:56:30.250Z,31.70
2018-09-18T08:59:01.150Z,31.50
2018-09-18T09:01:32.136Z,31.00
2018-09-18T09:04:02.981Z,30.90
2018-09-18T09:06:33.789Z,30.90
2018-09-18T09:09:07.099Z,31.90
2018-09-18T09:11:37.841Z,32.00
2018-09-18T09:14:09.076Z,32.10
2018-09-18T09:16:40.365Z,31.80
2018-09-18T09:19:11.504Z,32.00
2018-09-18T09:21:42.454Z,31.70
2018-09-18T09:24:13.282Z,31.90
2018-09-18T09:26:44.151Z,32.10
2018-09-18T09:29:14.990Z,32.70
2018-09-18T09:31:45.862Z,33.70
2018-09-18T09:34:16.681Z,33.80
2018-09-18T09:36:47.609Z,33.70
2018-09-18T09:39:18.428Z,33.20
2018-09-18T09:41:49.302Z,33.20
2018-09-18T09:44:20.149Z,33.20
2018-09-18T09:46:50.979Z,33.80
2018-09-18T09:49:21.852Z,33.60
2018-09-18T09:51:52.679Z,33.10
2018-09-18T09:54:23.548Z,32.90
2018-09-18T09:56:54.541Z,32.90
2018-09-18T09:59:25.332Z,32.90
2018-09-18T10:02:01.921Z,32.90
2018-09-18T10:04:32.764Z,32.90
2018-09-18T10:07:03.716Z,33.10
2018-09-18T10:09:34.592Z,33.00
2018-09-18T10:12:05.523Z,32.60
2018-09-18T10:14:36.513Z,31.60
2018-09-18T10:17:07.358Z,31.20
2018-09-18T10:19:38.224Z,30.90
2018-09-18T10:22:09.077Z,30.90
2018-09-18T10:24:39.936Z,30.90
2018-09-18T10:27:10.776Z,30.90
2018-09-18T10:29:41.639Z,31.20
2018-09-18T10:32:13.185Z,31.20
2018-09-18T10:34:44.131Z,31.40
2018-09-18T10:37:15.020Z,31.40
2018-09-18T10:39:46.593Z,31.30
2018-09-18T10:42:17.531Z,31.00
2018-09-18T10:44:48.360Z,30.90
2018-09-18T10:47:19.195Z,31.10
2018-09-18T10:49:50.054Z,31.40
2018-09-18T10:52:20.853Z,31.20
2018-09-18T10:54:51.760Z,30.50
2018-09-18T10:57:23.536Z,30.50
2018-09-18T10:59:54.439Z,30.60
2018-09-18T11:02:25.296Z,30.80
2018-09-18T11:04:56.109Z,30.50
2018-09-18T11:07:26.904Z,30.40
2018-09-18T11:09:57.836Z,30.60
2018-09-18T11:12:28.647Z,30.70
2018-09-18T11:14:59.563Z,30.20
2018-09-18T11:17:30.361Z,29.70
2018-09-18T11:20:01.329Z,29.70
2018-09-18T11:22:32.176Z,29.50
2018-09-18T11:25:03.048Z,29.70
2018-09-18T11:27:33.833Z,29.70
2018-09-18T11:30:04.816Z,29.40
2018-09-18T11:32:35.673Z,29.10
2018-09-18T11:35:06.610Z,28.60
2018-09-18T11:37:37.508Z,28.50
2018-09-18T11:40:08.632Z,28.50
2018-09-18T11:42:39.748Z,28.70
2018-09-18T11:45:10.542Z,29.10
2018-09-18T11:47:41.462Z,29.30
2018-09-18T11:50:12.275Z,29.10
2018-09-18T11:52:43.244Z,28.80
2018-09-18T11:55:14.690Z,28.80
2018-09-18T11:57:45.521Z,28.90
2018-09-18T12:00:16.589Z,28.70
2018-09-18T12:02:47.609Z,28.80
2018-09-18T12:05:18.454Z,28.50
2018-09-18T12:07:49.232Z,28.20
2018-09-18T12:10:20.048Z,28.10
2018-09-18T12:12:50.828Z,28.10
2018-09-18T12:15:21.752Z,27.90
2018-09-18T12:17:52.613Z,28.00
2018-09-18T12:20:23.475Z,27.70
2018-09-18T12:22:54.357Z,27.50
2018-09-18T12:25:25.222Z,27.60
2018-09-18T12:27:56.192Z,27.50
2018-09-18T12:30:26.929Z,27.60
2018-09-18T12:32:57.729Z,27.50
2018-09-18T12:35:28.737Z,27.40
2018-09-18T12:37:59.507Z,27.30
2018-09-18T12:40:30.599Z,27.20
2018-09-18T12:43:01.447Z,27.20
2018-09-18T12:45:32.919Z,27.40
2018-09-18T12:48:03.765Z,27.40
2018-09-18T12:50:34.749Z,27.40
2018-09-18T12:53:05.527Z,27.40
2018-09-18T12:55:36.342Z,27.30
2018-09-18T12:58:07.269Z,27.20
2018-09-18T13:00:38.372Z,27.10
2018-09-18T13:03:09.295Z,27.30
2018-09-18T13:05:40.251Z,27.30
2018-09-18T13:08:11.276Z,27.20
2018-09-18T13:10:42.142Z,27.20
2018-09-18T13:13:13.065Z,27.20
2018-09-18T13:15:44.043Z,27.10
2018-09-18T13:18:14.946Z,27.30
2018-09-18T13:20:45.797Z,27.20
2018-09-18T13:23:16.588Z,27.20
2018-09-18T13:25:47.484Z,27.20
2018-09-18T13:28:18.314Z,27.20
2018-09-18T13:30:49.359Z,27.10
2018-09-18T13:33:20.313Z,27.00
2018-09-18T13:35:51.175Z,27.00
2018-09-18T13:38:22.097Z,26.90
2018-09-18T13:40:53.111Z,27.00
2018-09-18T13:43:23.816Z,27.10
2018-09-18T13:45:54.692Z,27.00
2018-09-18T13:48:25.565Z,27.00
2018-09-18T13:50:56.467Z,27.00
2018-09-18T13:53:27.384Z,27.00
2018-09-18T13:55:58.320Z,26.90
2018-09-18T13:58:29.189Z,26.80
2018-09-18T14:01:00.216Z,26.70
2018-09-18T14:03:31.256Z,26.80
2018-09-18T14:06:02.197Z,26.90
2018-09-18T14:08:33.057Z,26.90
2018-09-18T14:11:04.034Z,26.90
2018-09-18T14:13:34.834Z,26.80
2018-09-18T14:16:07.323Z,26.80
2018-09-18T14:18:38.342Z,26.70
2018-09-18T14:21:09.909Z,26.70
2018-09-18T14:23:40.775Z,26.70
2018-09-18T14:26:11.766Z,26.60
2018-09-18T14:28:42.578Z,26.60
2018-09-18T14:31:13.626Z,26.60
2018-09-18T14:33:44.534Z,26.50
2018-09-18T14:36:15.442Z,26.50
2018-09-18T14:38:46.461Z,26.60
2018-09-18T14:41:17.639Z,26.50
2018-09-18T14:43:48.569Z,26.40
2018-09-18T14:46:19.421Z,26.50
2018-09-18T14:48:50.246Z,26.50
2018-09-18T14:51:21.091Z,26.60
2018-09-18T14:53:51.930Z,26.50
2018-09-18T14:56:22.809Z,26.40
2018-09-18T14:58:53.844Z,26.50
2018-09-18T15:01:25.220Z,26.40
2018-09-18T15:03:56.259Z,26.40
2018-09-18T15:06:27.411Z,26.30
2018-09-18T15:08:58.965Z,26.30
2018-09-18T15:11:29.997Z,26.30
2018-09-18T15:14:00.947Z,26.40
2018-09-18T15:16:31.705Z,26.40
2018-09-18T15:19:02.633Z,26.20
2018-09-18T15:21:36.529Z,26.20
2018-09-18T15:24:07.544Z,26.20
2018-09-18T15:26:39.033Z,26.20
2018-09-18T15:29:09.827Z,26.10
2018-09-18T15:31:40.636Z,26.10
2018-09-18T15:34:11.453Z,26.10
2018-09-18T15:36:42.452Z,26.10
2018-09-18T15:39:13.269Z,26.10
2018-09-18T15:41:44.132Z,26.10
2018-09-18T15:44:14.969Z,26.10
2018-09-18T15:46:45.878Z,26.00
2018-09-18T15:49:16.694Z,26.00
2018-09-18T15:51:47.698Z,26.00
2018-09-18T15:54:18.512Z,25.90
2018-09-18T15:56:49.380Z,25.90
2018-09-18T15:59:20.208Z,25.90
2018-09-18T16:01:51.536Z,25.90
2018-09-18T16:04:22.441Z,25.80
2018-09-18T16:06:53.351Z,25.80
2018-09-18T16:09:24.212Z,25.70
2018-09-18T16:11:55.216Z,25.70
2018-09-18T16:14:26.661Z,25.70
2018-09-18T16:16:58.588Z,25.70
2018-09-18T16:19:29.547Z,25.70
2018-09-18T16:22:00.635Z,25.60
2018-09-18T16:24:31.660Z,25.60
2018-09-18T16:27:02.572Z,25.50
2018-09-18T16:29:33.409Z,25.40
2018-09-18T16:32:04.343Z,25.40
2018-09-18T16:34:35.220Z,25.30
2018-09-18T16:37:06.281Z,25.30
2018-09-18T16:39:37.082Z,25.30
2018-09-18T16:42:08.101Z,25.30
2018-09-18T16:44:39.113Z,25.20
2018-09-18T16:47:10.428Z,25.10
2018-09-18T16:49:41.380Z,25.10
2018-09-18T16:52:12.397Z,25.10
2018-09-18T16:54:43.694Z,25.10
2018-09-18T16:57:15.158Z,25.10
2018-09-18T16:59:46.054Z,25.10
2018-09-18T17:02:17.088Z,25.00
2018-09-18T17:04:48.823Z,25.00
2018-09-18T17:07:19.853Z,24.90
2018-09-18T17:09:50.819Z,24.90
2018-09-18T17:12:22.251Z,24.80
2018-09-18T17:14:53.216Z,24.80
2018-09-18T17:17:24.128Z,24.70
2018-09-18T17:19:55.347Z,24.60
2018-09-18T17:22:26.581Z,24.60
2018-09-18T17:24:57.635Z,24.50
2018-09-18T17:27:28.574Z,24.40
2018-09-18T17:29:59.663Z,24.40
2018-09-18T17:32:30.617Z,24.30
2018-09-18T17:35:01.658Z,24.30
2018-09-18T17:37:32.765Z,24.20
2018-09-18T17:40:03.923Z,24.20
2018-09-18T17:42:35.368Z,24.20
2018-09-18T17:45:08.258Z,24.10
2018-09-18T17:47:40.309Z,24.10
2018-09-18T17:50:11.380Z,24.10
2018-09-18T17:52:42.612Z,24.00
2018-09-18T17:55:13.674Z,23.90
2018-09-18T17:57:45.046Z,23.80
2018-09-18T18:00:15.993Z,23.80
2018-09-18T18:02:46.822Z,23.70
2018-09-18T18:05:17.784Z,23.70
2018-09-18T18:07:48.768Z,23.70
2018-09-18T18:10:19.758Z,23.60
2018-09-18T18:12:50.902Z,23.50
2018-09-18T18:15:22.009Z,23.50
2018-09-18T18:17:53.125Z,23.50
2018-09-18T18:20:24.626Z,23.50
2018-09-18T18:22:55.871Z,23.40
2018-09-18T18:25:27.437Z,23.40
2018-09-18T18:27:58.421Z,23.50
2018-09-18T18:30:29.568Z,23.40
2018-09-18T18:33:00.515Z,23.30
2018-09-18T18:35:31.949Z,23.10
2018-09-18T18:38:03.885Z,23.10
2018-09-18T18:40:35.123Z,23.00
2018-09-18T18:43:06.304Z,22.80
2018-09-18T18:45:37.357Z,22.90
2018-09-18T18:48:08.522Z,22.90
2018-09-18T18:50:39.409Z,22.70
2018-09-18T18:53:10.308Z,22.70
2018-09-18T18:55:41.127Z,22.60
2018-09-18T18:58:12.372Z,22.60
2018-09-18T19:00:43.604Z,22.70
2018-09-18T19:03:14.467Z,22.40
2018-09-18T19:05:45.481Z,22.50
2018-09-18T19:08:16.376Z,22.50
2018-09-18T19:10:47.891Z,22.40
2018-09-18T19:13:18.998Z,22.40
2018-09-18T19:15:49.976Z,22.40
2018-09-18T19:18:20.930Z,22.40
2018-09-18T19:20:53.254Z,22.10
2018-09-18T19:23:24.483Z,22.10
2018-09-18T19:25:56.214Z,22.10
2018-09-18T19:28:27.433Z,22.20
2018-09-18T19:30:58.878Z,22.20
2018-09-18T19:33:30.346Z,22.10
2018-09-18T19:36:02.112Z,22.00
2018-09-18T19:38:35.628Z,21.90
2018-09-18T19:41:06.759Z,21.80
2018-09-18T19:43:37.984Z,21.80
2018-09-18T19:46:09.637Z,21.90
2018-09-18T19:48:41.047Z,21.60
2018-09-18T19:51:12.247Z,21.50
2018-09-18T19:53:44.246Z,21.60
2018-09-18T19:56:15.547Z,21.60
2018-09-18T19:58:47.041Z,21.50
2018-09-18T20:01:18.728Z,21.50
2018-09-18T20:03:50.750Z,21.60
2018-09-18T20:06:21.789Z,21.60
2018-09-18T20:08:53.309Z,21.60
2018-09-18T20:11:27.722Z,21.50
2018-09-18T20:13:58.961Z,21.40
2018-09-18T20:16:29.961Z,21.40
2018-09-18T20:19:00.950Z,21.40
2018-09-18T20:21:32.197Z,21.30
2018-09-18T20:24:03.304Z,21.20
2018-09-18T20:26:34.425Z,21.20
2018-09-18T20:29:06.114Z,21.10
2018-09-18T20:31:37.639Z,21.10
2018-09-18T20:34:09.177Z,21.00
2018-09-18T20:36:40.379Z,21.10
2018-09-18T20:39:12.291Z,21.20
2018-09-18T20:41:43.503Z,21.20
2018-09-18T20:44:14.917Z,21.20
2018-09-18T20:46:46.680Z,21.10
2018-09-18T20:49:19.468Z,21.10
2018-09-18T20:51:50.358Z,21.00
2018-09-18T20:54:21.826Z,20.90
2018-09-18T20:56:52.840Z,20.80
2018-09-18T20:59:24.078Z,20.90
2018-09-18T21:01:55.918Z,21.00
2018-09-18T21:04:26.897Z,20.90
2018-09-18T21:06:57.861Z,20.80
2018-09-18T21:09:28.780Z,20.60
2018-09-18T21:11:59.927Z,20.70
2018-09-18T21:14:30.947Z,20.70
2018-09-18T21:17:02.135Z,20.70
2018-09-18T21:19:33.460Z,20.60
2018-09-18T21:22:04.405Z,20.60
2018-09-18T21:24:36.184Z,20.60
2018-09-18T21:27:07.772Z,20.60
2018-09-18T21:29:39.265Z,20.60
2018-09-18T21:32:10.431Z,20.60
2018-09-18T21:34:41.320Z,20.40
2018-09-18T21:37:12.257Z,20.30
2018-09-18T21:39:43.167Z,20.20
2018-09-18T21:42:14.047Z,20.10
2018-09-18T21:44:45.286Z,20.10
2018-09-18T21:47:16.288Z,20.10
2018-09-18T21:49:47.176Z,20.00
2018-09-18T21:52:18.113Z,20.00
2018-09-18T21:54:49.035Z,19.90
2018-09-18T21:57:19.982Z,19.80
2018-09-18T21:59:50.920Z,19.70
2018-09-18T22:02:22.365Z,19.60
2018-09-18T22:04:53.247Z,19.60
2018-09-18T22:07:24.115Z,19.60
2018-09-18T22:09:54.962Z,19.50
2018-09-18T22:12:26.041Z,19.50
2018-09-18T22:14:57.142Z,19.40
2018-09-18T22:17:28.036Z,19.30
2018-09-18T22:19:58.987Z,19.30
2018-09-18T22:22:29.827Z,19.40
2018-09-18T22:25:00.826Z,19.50
2018-09-18T22:27:31.849Z,19.40
2018-09-18T22:30:02.969Z,19.20
2018-09-18T22:32:33.871Z,19.20
2018-09-18T22:35:04.802Z,19.20
2018-09-18T22:37:35.749Z,19.30
2018-09-18T22:40:06.867Z,19.30
2018-09-18T22:42:37.829Z,19.30
2018-09-18T22:45:08.799Z,19.30
2018-09-18T22:47:39.713Z,19.20
2018-09-18T22:50:10.715Z,19.20
2018-09-18T22:52:41.673Z,19.20
2018-09-18T22:55:12.688Z,19.20
2018-09-18T22:57:43.608Z,19.10
2018-09-18T23:00:14.590Z,18.90
2018-09-18T23:02:45.571Z,18.90
2018-09-18T23:05:16.782Z,19.00
2018-09-18T23:07:47.668Z,18.90
2018-09-18T23:10:18.540Z,18.80
2018-09-18T23:12:49.579Z,18.80
2018-09-18T23:15:20.504Z,18.80
2018-09-18T23:17:51.353Z,18.80
2018-09-18T23:20:22.375Z,18.80
2018-09-18T23:22:53.297Z,18.80
2018-09-18T23:25:24.236Z,18.70
2018-09-18T23:27:55.045Z,18.60
2018-09-18T23:30:26.004Z,18.70
2018-09-18T23:32:56.898Z,18.60
2018-09-18T23:35:27.868Z,18.40
2018-09-18T23:37:58.823Z,18.40
2018-09-18T23:40:30.351Z,18.40
2018-09-18T23:43:01.246Z,18.30
2018-09-18T23:45:32.090Z,18.30
2018-09-18T23:48:03.045Z,18.30
2018-09-18T23:50:34.023Z,18.30
2018-09-18T23:53:04.867Z,18.30
2018-09-18T23:55:35.745Z,18.40
2018-09-18T23:58:06.597Z,18.40
